Time;durP1;ratioP1;P1;durP2;ratioP2;P2;SDS_P1;SDS_P2;PMS_P1;PMS_P2;Temp;Humidity;BMP_temperature;BMP_pressure;BME280_temperature;BME280_humidity;BME280_pressure;Samples;Min_cycle;Max_cycle;Signal;HPM_P1;HPM_P2
2022/09/07 01:10:39;;;;;;;12.07;7.00;;;;;;;16.83;99.06;101144.66;5019890;28;20065;-72
2022/09/07 07:12:04;;;;;;;54.00;33.35;;;;;;;17.24;100.00;101167.16;5007192;28;20165;-75
2022/09/07 08:15:15;;;;;;;33.22;27.30;;;;;;;18.70;91.67;101208.91;5036052;28;20144;-72
2022/09/07 08:17:40;;;;;;;32.20;26.92;;;;;;;18.75;91.07;101206.13;5041772;28;20037;-74
2022/09/07 08:20:06;;;;;;;32.13;27.40;;;;;;;18.75;91.51;101203.34;5044943;28;20121;-73
2022/09/07 08:22:31;;;;;;;32.72;27.65;;;;;;;18.98;92.14;101205.59;5039816;28;20296;-67
2022/09/07 08:24:56;;;;;;;34.05;29.70;;;;;;;19.22;93.38;101211.44;5042419;28;20029;-73
2022/09/07 08:27:22;;;;;;;34.55;28.23;;;;;;;19.36;92.57;101207.00;5045747;28;20021;-74
2022/09/07 08:29:47;;;;;;;33.77;28.03;;;;;;;19.40;91.41;101204.44;5039107;28;20037;-70
2022/09/07 08:32:12;;;;;;;33.72;26.95;;;;;;;19.50;90.98;101211.97;5043069;28;20288;-73
2022/09/07 08:34:37;;;;;;;32.35;26.95;;;;;;;19.54;90.66;101213.91;5045950;28;20029;-73
2022/09/07 08:37:03;;;;;;;29.17;25.73;;;;;;;19.59;88.43;101216.72;5038714;28;20120;-65
2022/09/07 08:39:28;;;;;;;28.75;25.63;;;;;;;19.72;88.73;101222.78;5045673;28;20748;-73
2022/09/07 08:42:29;;;;;;;28.98;25.50;;;;;;;19.82;88.81;101225.56;5041102;28;20107;-74
2022/09/07 08:45:04;;;;;;;27.15;24.10;;;;;;;19.91;87.28;101223.84;5021067;28;20037;-74
2022/09/07 08:47:40;;;;;;;27.27;23.67;;;;;;;20.01;85.40;101218.25;5042131;28;20040;-66
2022/09/07 08:50:29;;;;;;;29.20;23.60;;;;;;;20.14;86.03;101227.97;5037390;28;20120;-73
2022/09/07 08:53:01;;;;;;;28.58;23.10;;;;;;;20.24;83.07;101235.47;5047696;28;20036;-73
2022/09/07 08:55:35;;;;;;;25.80;23.17;;;;;;;20.51;83.26;101230.31;5043998;28;20030;-72
2022/09/07 08:58:16;;;;;;;25.85;22.63;;;;;;;21.72;78.39;101222.06;5046621;28;20036;-65
2022/09/07 09:00:41;;;;;;;23.58;20.60;;;;;;;22.66;73.42;101218.66;5049055;28;20070;-71
2022/09/07 09:03:26;;;;;;;24.20;21.38;;;;;;;23.48;72.98;101222.91;5047277;28;20468;-74
2022/09/07 09:06:06;;;;;;;22.98;19.40;;;;;;;24.44;68.15;101220.16;5029180;28;20419;-72
2022/09/07 09:08:53;;;;;;;21.25;18.50;;;;;;;25.83;65.17;101226.81;5027971;28;20028;-72
2022/09/07 09:11:43;;;;;;;20.33;18.17;;;;;;;26.32;61.86;101222.84;5029081;28;20022;-72
2022/09/07 09:14:30;;;;;;;21.08;18.15;;;;;;;26.91;56.39;101226.06;5035051;28;20846;-72
2022/09/07 09:17:06;;;;;;;18.67;16.55;;;;;;;27.63;55.17;101227.31;5048590;28;20035;-70
2022/09/07 09:19:50;;;;;;;21.10;16.50;;;;;;;28.50;53.93;101228.91;5048738;28;20024;-70
2022/09/07 09:22:19;;;;;;;19.30;16.60;;;;;;;28.69;50.07;101226.44;5048321;28;20041;-72
2022/09/07 09:24:47;;;;;;;18.17;15.90;;;;;;;29.24;47.83;101222.47;5048111;28;20025;-71
2022/09/07 09:27:14;;;;;;;18.65;16.50;;;;;;;30.06;46.66;101224.53;5027663;28;20376;-71
2022/09/07 09:29:39;;;;;;;18.55;15.10;;;;;;;30.97;44.18;101211.69;5028456;28;20028;-71
2022/09/07 09:32:38;;;;;;;16.33;14.05;;;;;;;31.56;45.37;101223.47;5028208;28;20034;-72
2022/09/07 09:35:12;;;;;;;17.10;14.00;;;;;;;31.44;41.57;101211.00;5040809;28;20036;-70
2022/09/07 09:37:39;;;;;;;17.17;13.38;;;;;;;31.20;41.71;101213.94;5048006;28;20047;-68
2022/09/07 09:40:16;;;;;;;16.30;12.80;;;;;;;30.87;43.60;101217.88;5047448;28;20028;-71
2022/09/07 09:42:41;;;;;;;17.73;13.13;;;;;;;30.92;42.20;101220.44;5048401;28;20051;-69
2022/09/07 09:45:19;;;;;;;16.40;12.27;;;;;;;31.50;43.40;101212.38;5046351;28;20033;-70
2022/09/07 09:47:51;;;;;;;16.35;11.32;;;;;;;30.85;43.04;101225.06;5048693;28;20031;-69
2022/09/07 09:50:22;;;;;;;16.00;10.88;;;;;;;30.74;42.00;101225.56;5041920;28;20090;-70
2022/09/07 09:52:50;;;;;;;14.07;9.10;;;;;;;30.73;41.41;101217.44;5028956;28;20372;-70
2022/09/07 09:55:35;;;;;;;13.77;8.38;;;;;;;30.96;42.73;101218.53;5045623;28;20467;-69
2022/09/07 09:58:23;;;;;;;16.80;11.30;;;;;;;29.76;43.21;101216.28;5029689;28;20033;-69
2022/09/07 10:00:56;;;;;;;16.50;9.35;;;;;;;30.24;42.90;101208.97;5048560;28;20032;-66
2022/09/07 10:03:24;;;;;;;15.55;8.30;;;;;;;31.48;40.16;101206.25;5046380;28;20167;-69
2022/09/07 10:05:50;;;;;;;15.85;8.65;;;;;;;32.15;38.22;101206.34;5047765;28;20052;-70
2022/09/07 10:08:27;;;;;;;13.80;8.02;;;;;;;32.87;37.44;101197.44;5046102;28;20117;-69
2022/09/07 10:10:54;;;;;;;13.05;6.85;;;;;;;33.68;36.11;101205.16;5047564;28;20071;-67
2022/09/07 10:13:22;;;;;;;12.13;5.43;;;;;;;33.54;34.85;101205.72;5046433;28;20517;-70
2022/09/07 10:15:53;;;;;;;13.55;6.30;;;;;;;33.59;34.08;101202.53;5048643;28;20033;-70
2022/09/07 10:18:28;;;;;;;13.35;5.80;;;;;;;33.80;35.40;101202.91;5047522;28;20041;-67
2022/09/07 10:21:10;;;;;;;13.90;6.43;;;;;;;33.39;36.28;101203.75;5029481;28;20025;-70
2022/09/07 10:23:36;;;;;;;12.88;5.47;;;;;;;32.74;34.98;101193.06;5036248;28;20662;-69
2022/09/07 10:26:19;;;;;;;12.60;5.53;;;;;;;33.33;36.86;101188.19;5047556;28;20032;-70
2022/09/07 10:28:45;;;;;;;14.88;6.30;;;;;;;34.02;35.33;101195.59;5046518;28;20362;-67
2022/09/07 10:31:19;;;;;;;17.37;7.27;;;;;;;33.97;33.85;101197.94;5044871;28;20113;-71
2022/09/07 10:33:58;;;;;;;18.70;8.20;;;;;;;33.84;33.96;101197.28;5040688;28;20283;-70
2022/09/07 10:36:40;;;;;;;18.00;7.63;;;;;;;34.22;33.14;101192.63;5038300;28;20373;-70
2022/09/07 10:39:11;;;;;;;18.05;6.60;;;;;;;35.16;33.06;101190.66;5035490;28;20380;-70
2022/09/07 10:41:50;;;;;;;15.15;6.43;;;;;;;35.59;31.46;101191.97;5039012;28;20040;-71
2022/09/07 10:44:37;;;;;;;18.42;6.82;;;;;;;35.15;32.29;101186.16;5043266;28;20510;-70
2022/09/07 10:47:15;;;;;;;16.23;7.22;;;;;;;34.46;31.37;101192.19;5045871;28;20039;-71
2022/09/07 10:49:59;;;;;;;18.50;6.38;;;;;;;34.11;32.54;101181.03;5038454;28;20031;-69
2022/09/07 10:52:41;;;;;;;18.25;7.43;;;;;;;35.06;32.21;101180.75;5044536;28;20033;-71
2022/09/07 10:55:25;;;;;;;18.23;7.32;;;;;;;35.59;30.44;101180.53;5050213;28;20029;-71
2022/09/07 10:58:11;;;;;;;21.17;6.28;;;;;;;36.43;29.40;101180.78;5050284;28;20033;-66
2022/09/07 11:00:50;;;;;;;16.17;5.55;;;;;;;36.17;29.74;101169.56;5049051;28;20337;-71
2022/09/07 11:03:31;;;;;;;15.35;4.20;;;;;;;36.62;28.64;101173.94;5048099;28;20039;-71
2022/09/07 11:06:17;;;;;;;12.48;4.30;;;;;;;36.38;29.14;101173.38;5048590;28;20489;-68
2022/09/07 11:09:04;;;;;;;10.45;3.92;;;;;;;36.23;29.06;101163.06;5029709;28;20053;-70
2022/09/07 11:11:44;;;;;;;15.27;4.32;;;;;;;36.13;28.54;101153.19;5030665;28;20038;-71
2022/09/07 11:14:17;;;;;;;14.57;4.47;;;;;;;35.00;30.81;101165.19;5042911;28;20187;-71
2022/09/07 11:16:51;;;;;;;18.77;4.80;;;;;;;33.44;31.84;101166.47;5047972;28;20035;-70
2022/09/07 11:19:21;;;;;;;15.15;4.10;;;;;;;31.69;36.26;101171.09;5051001;28;20032;-70
2022/09/07 11:21:58;;;;;;;11.07;4.50;;;;;;;30.96;36.90;101172.31;5043405;28;20395;-70
2022/09/07 11:24:32;;;;;;;12.43;4.40;;;;;;;29.36;39.64;101168.78;5030121;28;20017;-66
2022/09/07 11:27:05;;;;;;;13.85;4.60;;;;;;;27.99;42.59;101161.09;5036761;28;20032;-69
2022/09/07 11:29:46;;;;;;;12.30;4.10;;;;;;;27.48;44.24;101162.13;5049456;28;20078;-72
2022/09/07 11:32:27;;;;;;;12.75;4.20;;;;;;;27.49;44.58;101160.97;5039179;28;20041;-71
2022/09/07 11:34:57;;;;;;;12.73;4.47;;;;;;;27.79;45.54;101161.88;5029760;28;20548;-70
2022/09/07 11:37:45;;;;;;;14.52;4.97;;;;;;;27.62;45.34;101162.72;5037861;28;20028;-66
2022/09/07 11:40:23;;;;;;;10.93;4.13;;;;;;;27.64;45.70;101157.59;5045446;28;20033;-71
2022/09/07 11:43:05;;;;;;;12.07;4.32;;;;;;;28.02;44.31;101157.56;5049993;28;20021;-65
2022/09/07 11:45:44;;;;;;;10.55;3.35;;;;;;;28.00;43.54;101151.44;5049878;28;20112;-73
2022/09/07 11:48:16;;;;;;;10.75;3.15;;;;;;;27.29;43.03;101160.53;5048555;28;20029;-69
2022/09/07 11:50:47;;;;;;;10.88;3.30;;;;;;;26.74;45.06;101157.59;5048944;28;20139;-72
2022/09/07 11:53:22;;;;;;;9.32;3.17;;;;;;;26.98;45.17;101154.28;5048174;28;20029;-73
2022/09/07 11:55:54;;;;;;;8.90;3.10;;;;;;;27.30;44.21;101156.53;5039970;28;20490;-67
2022/09/07 11:58:48;;;;;;;12.68;3.97;;;;;;;27.53;44.09;101153.50;5043665;28;20568;-73
2022/09/07 12:01:44;;;;;;;13.25;5.00;;;;;;;27.74;44.74;101143.13;5042238;28;20026;-71
2022/09/07 12:04:29;;;;;;;11.63;3.83;;;;;;;27.47;44.24;101152.00;5047553;28;20036;-72
2022/09/07 12:07:13;;;;;;;13.35;3.67;;;;;;;27.31;44.12;101140.44;5045587;28;20515;-67
2022/09/07 12:09:59;;;;;;;10.82;3.20;;;;;;;27.61;44.11;101144.97;5045370;28;20032;-70
2022/09/07 12:12:46;;;;;;;10.35;3.53;;;;;;;27.77;43.26;101142.44;5036298;28;20037;-73
2022/09/07 12:15:43;;;;;;;9.35;3.53;;;;;;;27.68;43.23;101150.09;5044844;28;20049;-71
2022/09/07 12:18:30;;;;;;;18.85;4.03;;;;;;;27.63;42.84;101144.66;5046599;28;20029;-73
2022/09/07 12:20:55;;;;;;;11.35;3.20;;;;;;;27.36;43.42;101143.06;5029460;28;20041;-73
2022/09/07 12:23:29;;;;;;;8.77;2.63;;;;;;;27.48;43.41;101139.56;5040167;28;20379;-72
2022/09/07 12:26:33;;;;;;;11.98;3.10;;;;;;;27.64;43.26;101129.38;5047076;28;20526;-73
2022/09/07 12:28:58;;;;;;;10.18;3.05;;;;;;;27.65;40.88;101129.00;5042298;28;20551;-70
2022/09/07 12:31:44;;;;;;;8.40;2.80;;;;;;;27.97;42.21;101125.88;5048582;28;20119;-73
2022/09/07 12:34:28;;;;;;;8.20;2.20;;;;;;;28.11;41.57;101115.16;5048949;28;20033;-74
2022/09/07 12:36:53;;;;;;;9.35;2.53;;;;;;;27.95;39.19;101114.13;5046693;28;20075;-66
2022/09/07 12:39:31;;;;;;;8.20;2.40;;;;;;;27.77;40.83;101119.03;5046522;28;20426;-70
2022/09/07 12:42:06;;;;;;;11.00;2.33;;;;;;;27.70;41.94;101110.25;5034663;28;20055;-73
2022/09/07 12:44:33;;;;;;;9.68;2.50;;;;;;;27.83;42.54;101117.66;5029382;28;20053;-73
2022/09/07 12:47:01;;;;;;;13.40;2.37;;;;;;;27.81;39.46;101101.06;5030159;28;20031;-70
2022/09/07 12:50:05;;;;;;;7.47;1.80;;;;;;;28.14;38.96;101106.84;5043895;28;20021;-72
2022/09/07 12:52:46;;;;;;;11.32;1.92;;;;;;;27.90;39.36;101107.50;5045910;28;20400;-73
2022/09/07 12:55:28;;;;;;;8.55;2.20;;;;;;;27.72;39.38;101105.94;5040661;28;20045;-73
2022/09/07 12:58:19;;;;;;;8.48;2.00;;;;;;;27.57;40.11;101101.66;5046177;28;20025;-68
2022/09/07 13:01:04;;;;;;;8.25;2.20;;;;;;;27.80;39.58;101101.41;5048330;28;20051;-71
2022/09/07 13:03:47;;;;;;;10.48;2.25;;;;;;;28.02;39.90;101083.31;5046988;28;20036;-71
2022/09/07 13:06:17;;;;;;;6.13;1.77;;;;;;;28.13;38.38;101101.50;5029493;28;20040;-73
2022/09/07 13:09:22;;;;;;;7.78;1.73;;;;;;;28.14;38.87;101095.53;5043734;28;20049;-73
2022/09/07 13:11:48;;;;;;;6.85;1.70;;;;;;;28.07;38.35;101091.59;5042827;28;20028;-73
2022/09/07 13:14:13;;;;;;;6.93;1.88;;;;;;;28.04;37.30;101083.81;5041479;28;20037;-73
2022/09/07 13:16:41;;;;;;;8.80;2.03;;;;;;;28.13;37.89;101081.75;5043638;28;20538;-74
2022/09/07 13:19:12;;;;;;;5.05;1.80;;;;;;;28.19;36.77;101086.84;5044359;28;20072;-67
2022/09/07 13:21:48;;;;;;;5.65;1.45;;;;;;;27.74;36.87;101080.22;5037373;28;20438;-72
2022/09/07 13:24:19;;;;;;;7.45;1.80;;;;;;;27.61;37.48;101080.06;5043915;28;20036;-74
2022/09/07 13:26:57;;;;;;;8.65;1.75;;;;;;;27.24;37.89;101087.38;5039593;28;20042;-74
2022/09/07 13:29:31;;;;;;;7.32;1.45;;;;;;;27.09;39.15;101082.28;5037917;28;20491;-75
2022/09/07 13:32:09;;;;;;;6.30;1.80;;;;;;;27.48;39.72;101080.31;5040654;28;20082;-70
2022/09/07 13:34:47;;;;;;;6.93;2.10;;;;;;;27.70;38.59;101082.84;5046746;28;20017;-73
2022/09/07 13:37:22;;;;;;;;;;;;;;;28.19;38.78;101075.56;5038677;28;20021;-72
2022/09/07 13:39:51;;;;;;;6.85;1.60;;;;;;;27.65;37.52;101068.94;5043965;28;20009;-74
2022/09/07 13:42:39;;;;;;;6.97;1.58;;;;;;;27.53;37.54;101063.19;5041611;28;20031;-73
2022/09/07 13:45:06;;;;;;;7.32;1.88;;;;;;;27.53;40.64;101063.19;5045167;28;20047;-71
2022/09/07 13:47:55;;;;;;;5.32;1.58;;;;;;;27.18;38.80;101071.00;5045349;28;20262;-74
2022/09/07 13:50:36;;;;;;;4.70;1.35;;;;;;;27.24;39.79;101061.19;5039892;28;20037;-73
2022/09/07 13:53:13;;;;;;;5.13;1.60;;;;;;;27.24;40.41;101053.53;5044011;28;20029;-74
2022/09/07 13:55:56;;;;;;;6.88;1.50;;;;;;;27.42;39.64;101057.09;5042986;28;20029;-74
2022/09/07 13:58:32;;;;;;;5.80;1.40;;;;;;;27.57;39.06;101050.03;5029801;28;20053;-74
2022/09/07 14:01:01;;;;;;;6.55;1.40;;;;;;;27.56;36.57;101049.22;5044468;28;20480;-74
2022/09/07 14:03:32;;;;;;;6.32;1.30;;;;;;;27.48;36.03;101055.75;5030587;28;20028;-74
2022/09/07 14:06:19;;;;;;;6.22;1.45;;;;;;;27.60;36.99;101060.66;5047193;28;20111;-75
2022/09/07 14:08:50;;;;;;;5.05;1.40;;;;;;;27.54;36.69;101047.94;5045310;28;20033;-73
2022/09/07 14:11:40;;;;;;;6.30;1.48;;;;;;;27.63;37.45;101045.88;5040158;28;20098;-74
2022/09/07 14:14:06;;;;;;;4.88;1.30;;;;;;;27.46;37.09;101049.59;5030487;28;20081;-73
2022/09/07 14:16:33;;;;;;;5.97;1.30;;;;;;;27.30;35.90;101043.72;5041804;28;20021;-74
2022/09/07 14:18:58;;;;;;;5.95;1.17;;;;;;;27.38;36.75;101051.31;5050729;28;20043;-73
2022/09/07 14:21:23;;;;;;;4.43;1.30;;;;;;;27.60;39.03;101043.72;5050120;28;20375;-75
2022/09/07 14:23:50;;;;;;;5.85;1.20;;;;;;;27.56;37.18;101045.56;5050105;28;20031;-74
2022/09/07 14:26:21;;;;;;;4.28;1.05;;;;;;;27.02;37.40;101050.97;5044966;28;20499;-74
2022/09/07 14:28:49;;;;;;;5.90;1.00;;;;;;;26.58;38.17;101053.88;5050968;28;20095;-75
2022/09/07 14:31:15;;;;;;;;;;;;;;;26.73;39.16;101055.34;5050596;28;20033;-75
2022/09/07 14:33:55;;;;;;;7.15;1.58;;;;;;;26.30;39.46;101059.00;5050579;28;19908;-75
2022/09/07 14:36:31;;;;;;;4.57;1.10;;;;;;;26.28;40.36;101041.63;5049255;28;20053;-75
2022/09/07 14:38:58;;;;;;;5.47;1.30;;;;;;;26.26;40.45;101046.75;5045656;28;20028;-75
2022/09/07 14:41:27;;;;;;;5.78;1.30;;;;;;;26.23;41.85;101043.78;5043649;28;20484;-73
2022/09/07 14:43:55;;;;;;;6.05;1.30;;;;;;;26.11;40.20;101036.00;5044360;28;20037;-74
2022/09/07 14:46:35;;;;;;;7.43;1.30;;;;;;;26.03;40.90;101040.47;5039559;28;20021;-74
2022/09/07 14:49:13;;;;;;;5.05;1.73;;;;;;;26.01;42.79;101037.16;5031519;28;20044;-73
2022/09/07 14:51:43;;;;;;;4.07;1.23;;;;;;;26.07;41.30;101038.66;5043359;28;20643;-74
2022/09/07 14:54:19;;;;;;;4.88;1.52;;;;;;;26.04;40.84;101030.03;5035662;28;20030;-74
2022/09/07 14:57:16;;;;;;;4.53;1.25;;;;;;;25.99;41.54;101028.19;5039207;28;20035;-69
2022/09/07 14:59:46;;;;;;;5.28;1.40;;;;;;;26.01;41.03;101025.91;5017193;28;20055;-70
2022/09/07 15:02:17;;;;;;;5.32;1.33;;;;;;;25.83;42.09;101029.84;5041905;28;20348;-74
2022/09/07 15:04:46;;;;;;;5.10;1.20;;;;;;;25.69;41.34;101035.56;5040944;28;20418;-74
2022/09/07 15:07:51;;;;;;;4.97;1.27;;;;;;;25.78;42.03;101027.19;5034524;28;20426;-74
2022/09/07 15:10:19;;;;;;;7.53;1.67;;;;;;;25.65;42.67;101030.94;4982096;28;20151;-75
2022/09/07 15:12:46;;;;;;;5.93;1.40;;;;;;;25.65;41.96;101023.34;5031520;28;20037;-75
2022/09/07 15:15:17;;;;;;;4.03;1.30;;;;;;;25.65;41.70;101014.06;5041270;28;20041;-74
2022/09/07 15:17:44;;;;;;;5.30;1.10;;;;;;;25.66;41.79;101010.94;5048542;28;20021;-73
2022/09/07 15:20:28;;;;;;;3.80;1.10;;;;;;;25.72;42.13;101020.88;5049497;28;20029;-74
2022/09/07 15:22:54;;;;;;;4.90;1.63;;;;;;;25.69;42.38;101024.31;5033300;28;20016;-74
2022/09/07 15:25:19;;;;;;;5.38;1.35;;;;;;;25.69;42.16;101020.69;5035896;28;20029;-74
2022/09/07 15:27:45;;;;;;;5.10;1.25;;;;;;;25.65;42.72;101014.91;5044094;28;20372;-67
2022/09/07 15:30:10;;;;;;;6.28;1.40;;;;;;;25.68;43.08;101010.59;5048195;28;20112;-74
2022/09/07 15:32:36;;;;;;;6.88;1.38;;;;;;;25.60;42.31;101015.91;5033592;28;20017;-74
2022/09/07 15:35:01;;;;;;;3.40;1.03;;;;;;;25.65;42.79;101006.47;5039782;28;20487;-74
2022/09/07 15:37:26;;;;;;;5.37;1.73;;;;;;;25.74;41.98;101004.47;5050155;28;20279;-74
2022/09/07 15:39:51;;;;;;;6.75;1.73;;;;;;;25.96;43.12;100999.91;5050264;28;20287;-74
2022/09/07 15:42:17;;;;;;;4.32;1.30;;;;;;;26.04;41.64;100996.25;5048947;28;20017;-74
2022/09/07 15:44:42;;;;;;;10.75;1.90;;;;;;;26.00;42.92;101006.50;5049029;28;20480;-70
2022/09/07 15:47:08;;;;;;;7.85;1.60;;;;;;;25.90;42.95;101013.28;5050552;28;20048;-74
2022/09/07 15:49:33;;;;;;;6.25;2.03;;;;;;;25.61;42.91;101005.47;5048293;28;20387;-72
2022/09/07 15:51:59;;;;;;;6.90;1.45;;;;;;;25.31;43.00;101010.84;5045163;28;20021;-74
2022/09/07 15:54:24;;;;;;;4.22;1.20;;;;;;;25.05;44.56;101002.31;5038861;28;20436;-74
2022/09/07 15:56:50;;;;;;;5.75;1.67;;;;;;;24.95;44.15;101002.59;5044732;28;20438;-67
2022/09/07 15:59:15;;;;;;;5.45;1.35;;;;;;;24.92;45.34;101002.41;5042112;28;20184;-72
2022/09/07 16:01:41;;;;;;;6.83;1.50;;;;;;;24.80;45.77;101003.00;5041781;28;20033;-73
2022/09/07 16:04:14;;;;;;;6.13;1.25;;;;;;;24.75;45.23;100995.56;5049072;28;20279;-72
2022/09/07 16:06:40;;;;;;;7.15;1.65;;;;;;;24.78;46.09;101000.50;5047142;28;20028;-71
2022/09/07 16:09:06;;;;;;;6.25;1.60;;;;;;;24.78;45.63;100997.69;5046036;28;20505;-73
2022/09/07 16:11:31;;;;;;;4.47;1.17;;;;;;;24.74;46.17;100999.53;5050381;28;20072;-72
2022/09/07 16:13:59;;;;;;;5.22;1.30;;;;;;;24.75;46.44;100995.56;5048546;28;20496;-73
2022/09/07 16:16:24;;;;;;;5.47;1.52;;;;;;;24.72;46.48;100984.13;5045506;28;20451;-73
2022/09/07 16:18:50;;;;;;;6.10;1.20;;;;;;;24.64;46.21;100987.72;5049627;28;20113;-67
2022/09/07 16:21:16;;;;;;;5.20;1.40;;;;;;;24.64;47.67;100997.00;5049430;28;20028;-73
2022/09/07 16:23:44;;;;;;;6.30;1.30;;;;;;;24.61;48.07;100986.38;5041635;28;20029;-73
2022/09/07 16:26:10;;;;;;;5.38;1.60;;;;;;;24.55;48.87;100984.88;5049832;28;20021;-73
2022/09/07 16:28:38;;;;;;;4.38;1.30;;;;;;;24.51;47.68;100986.66;5049112;28;20074;-70
2022/09/07 16:31:06;;;;;;;;;;;;;;;24.70;47.28;100981.66;5050214;28;20025;-74
2022/09/07 16:33:32;;;;;;;4.07;1.20;;;;;;;24.49;48.68;100986.16;5048076;28;20244;-72
2022/09/07 16:36:05;;;;;;;6.53;1.55;;;;;;;24.38;47.85;100988.41;5049051;28;20116;-73
2022/09/07 16:38:33;;;;;;;5.50;1.20;;;;;;;24.32;48.28;100982.03;5049266;28;20043;-74
2022/09/07 16:40:59;;;;;;;7.82;1.80;;;;;;;24.27;48.36;100987.78;5047824;28;20790;-73
2022/09/07 16:43:25;;;;;;;6.28;1.30;;;;;;;24.17;49.59;100990.03;5048475;28;20099;-67
2022/09/07 16:46:04;;;;;;;6.40;1.58;;;;;;;24.18;49.74;100986.91;5048762;28;20060;-72
2022/09/07 16:48:31;;;;;;;5.10;1.30;;;;;;;24.11;50.65;100986.50;5049369;28;20041;-72
2022/09/07 16:50:57;;;;;;;7.80;1.70;;;;;;;24.08;48.68;100988.00;5048583;28;20127;-73
2022/09/07 16:53:22;;;;;;;5.28;1.20;;;;;;;24.04;51.27;100986.13;5048247;28;20120;-73
2022/09/07 16:55:48;;;;;;;4.47;1.10;;;;;;;24.00;49.67;100983.13;5048922;28;20052;-67
2022/09/07 16:58:13;;;;;;;4.27;1.37;;;;;;;23.96;49.58;100986.88;5045794;28;20556;-73
2022/09/07 17:00:38;;;;;;;4.28;1.75;;;;;;;23.95;51.87;100988.03;5048705;28;20413;-72
2022/09/07 17:03:04;;;;;;;6.07;1.15;;;;;;;23.92;50.99;100989.50;5043151;28;20528;-71
2022/09/07 17:05:30;;;;;;;4.40;1.35;;;;;;;23.85;53.46;100991.09;5046573;28;20439;-71
2022/09/07 17:07:56;;;;;;;5.72;1.20;;;;;;;23.81;51.64;100986.09;5043399;28;20071;-67
2022/09/07 17:10:21;;;;;;;7.57;1.50;;;;;;;23.74;50.81;100979.28;5046471;28;20439;-73
2022/09/07 17:12:49;;;;;;;4.77;1.37;;;;;;;23.68;49.37;100983.34;5047670;28;20068;-68
2022/09/07 17:15:14;;;;;;;7.00;1.55;;;;;;;23.54;50.91;100980.53;5046642;28;20303;-73
2022/09/07 17:17:39;;;;;;;6.13;1.52;;;;;;;23.49;51.26;100975.06;5048578;28;20090;-72
2022/09/07 17:20:05;;;;;;;6.37;1.43;;;;;;;23.33;52.00;100971.75;5042010;28;20434;-72
2022/09/07 17:22:31;;;;;;;4.63;1.33;;;;;;;23.19;54.07;100962.53;5045639;28;20317;-70
2022/09/07 17:24:56;;;;;;;12.50;2.17;;;;;;;22.93;59.78;100957.47;5036174;28;20044;-70
2022/09/07 17:27:21;;;;;;;14.83;2.57;;;;;;;22.56;61.55;100952.00;5043988;28;20746;-73
2022/09/07 17:29:46;;;;;;;12.10;1.90;;;;;;;22.30;64.38;100958.06;5036676;28;20296;-73
2022/09/07 17:32:12;;;;;;;12.67;2.13;;;;;;;22.04;66.30;100949.25;5047757;28;20021;-73
2022/09/07 17:34:37;;;;;;;12.67;2.17;;;;;;;21.87;67.63;100948.97;5048159;28;20287;-72
2022/09/07 17:37:02;;;;;;;9.37;2.10;;;;;;;21.67;68.00;100950.13;5042509;28;20334;-69
2022/09/07 17:39:28;;;;;;;13.82;2.70;;;;;;;21.53;66.63;100947.25;5045732;28;20776;-76
2022/09/07 17:41:54;;;;;;;10.05;2.30;;;;;;;21.49;68.71;100943.38;5047179;28;20476;-75
2022/09/07 17:44:20;;;;;;;9.73;2.10;;;;;;;21.40;68.96;100948.00;5046667;28;20040;-73
2022/09/07 17:46:45;;;;;;;11.82;1.95;;;;;;;21.29;68.48;100947.28;5047130;28;20033;-75
2022/09/07 17:49:13;;;;;;;13.50;2.30;;;;;;;21.21;68.08;100950.75;5047322;28;20043;-68
2022/09/07 17:51:38;;;;;;;10.50;2.07;;;;;;;21.23;71.69;100951.25;5045858;28;20800;-76
2022/09/07 17:54:05;;;;;;;17.77;2.60;;;;;;;21.14;71.80;100955.88;5046037;28;20303;-76
2022/09/07 17:56:31;;;;;;;5.30;1.45;;;;;;;20.97;71.43;100959.13;5047729;28;20283;-73
2022/09/07 17:58:58;;;;;;;11.25;2.10;;;;;;;20.86;71.01;100952.00;5046168;28;20041;-76
2022/09/07 18:01:24;;;;;;;10.88;1.95;;;;;;;20.84;70.31;100963.50;5046061;28;20025;-77
2022/09/07 18:03:50;;;;;;;9.65;1.90;;;;;;;20.73;71.60;100951.63;5046407;28;20096;-68
2022/09/07 18:06:16;;;;;;;7.50;2.22;;;;;;;20.75;69.59;100958.84;5045766;28;20021;-76
2022/09/07 18:08:42;;;;;;;12.80;2.50;;;;;;;20.69;73.38;100953.31;5039771;28;20522;-74
2022/09/07 18:11:11;;;;;;;8.13;1.80;;;;;;;20.66;74.38;100959.47;5033731;28;20041;-74
2022/09/07 18:13:37;;;;;;;9.43;2.03;;;;;;;20.62;73.34;100961.19;5042934;28;20451;-72
2022/09/07 18:16:12;;;;;;;9.40;2.05;;;;;;;20.52;73.81;100969.66;5046949;28;20043;-76
2022/09/07 18:18:37;;;;;;;9.90;1.83;;;;;;;20.33;73.55;100965.94;5044810;28;20377;-74
2022/09/07 18:21:10;;;;;;;7.70;1.67;;;;;;;20.20;72.66;100959.06;5042158;28;20059;-76
2022/09/07 18:23:36;;;;;;;10.38;1.92;;;;;;;20.11;74.22;100960.81;5039416;28;20040;-74
2022/09/07 18:26:01;;;;;;;7.78;1.90;;;;;;;19.96;75.01;100975.72;5035453;28;20468;-75
2022/09/07 18:28:26;;;;;;;8.53;2.00;;;;;;;19.89;74.27;100964.91;5044384;28;20091;-72
2022/09/07 18:30:51;;;;;;;11.90;1.98;;;;;;;19.85;76.10;100962.97;5045583;28;20313;-76
2022/09/07 18:33:17;;;;;;;22.80;2.90;;;;;;;19.72;77.08;100958.06;5043816;28;20099;-76
2022/09/07 18:35:46;;;;;;;11.82;2.15;;;;;;;19.60;78.13;100961.19;5037648;28;20306;-76
2022/09/07 18:38:12;;;;;;;10.95;2.25;;;;;;;19.50;79.13;100959.28;5045963;28;20025;-76
2022/09/07 18:40:37;;;;;;;6.35;2.33;;;;;;;19.33;78.96;100956.03;5037928;28;20039;-71
2022/09/07 18:43:03;;;;;;;8.63;1.87;;;;;;;19.13;78.48;100960.59;5044208;28;20604;-77
2022/09/07 18:45:28;;;;;;;6.78;2.00;;;;;;;18.95;78.47;100952.84;5047629;28;20282;-76
2022/09/07 18:47:53;;;;;;;7.45;1.90;;;;;;;18.80;79.08;100958.47;5046713;28;20032;-74
2022/09/07 18:50:19;;;;;;;7.97;2.15;;;;;;;18.74;81.59;100956.84;5045466;28;20958;-73
2022/09/07 18:52:45;;;;;;;8.75;2.10;;;;;;;18.74;81.15;100954.03;5048129;28;20529;-77
2022/09/07 18:55:10;;;;;;;4.60;1.60;;;;;;;18.64;79.66;100957.66;5044883;28;20123;-75
2022/09/07 18:57:36;;;;;;;8.10;2.08;;;;;;;18.65;78.57;100962.97;5046352;28;20035;-77
2022/09/07 19:00:02;;;;;;;7.35;2.10;;;;;;;18.66;79.43;100963.78;5045921;28;20029;-68
2022/09/07 19:02:28;;;;;;;9.27;2.00;;;;;;;18.64;79.10;100969.63;5047854;28;20112;-69
2022/09/07 19:04:53;;;;;;;7.78;1.77;;;;;;;18.65;77.44;100965.75;5045012;28;20040;-68
2022/09/07 19:07:19;;;;;;;6.17;1.90;;;;;;;18.69;77.95;100973.53;5048757;28;20029;-68
2022/09/07 19:09:46;;;;;;;7.35;2.10;;;;;;;18.70;77.28;100975.19;5049909;28;20635;-77
2022/09/07 19:12:12;;;;;;;6.53;1.90;;;;;;;18.72;78.42;100973.81;5050909;28;20357;-73
2022/09/07 19:14:37;;;;;;;6.50;2.83;;;;;;;18.69;79.87;100971.59;5048853;28;20079;-75
2022/09/07 19:17:02;;;;;;;6.43;2.00;;;;;;;18.74;79.96;100976.31;5050545;28;20021;-76
2022/09/07 19:19:27;;;;;;;6.70;1.88;;;;;;;18.63;79.68;100976.31;5037491;28;20299;-75
2022/09/07 19:21:53;;;;;;;8.25;1.98;;;;;;;18.51;79.91;100978.56;5045685;28;20116;-71
2022/09/07 19:24:18;;;;;;;8.30;1.90;;;;;;;18.52;80.18;100980.22;5041705;28;20032;-73
2022/09/07 19:26:46;;;;;;;7.50;1.98;;;;;;;18.56;80.78;100980.50;5044151;28;20042;-71
2022/09/07 19:29:14;;;;;;;5.00;1.80;;;;;;;18.60;81.39;100974.09;5037188;28;20029;-77
2022/09/07 19:31:40;;;;;;;;;;;;;;;18.81;76.91;100969.34;5043566;28;20033;-71
2022/09/07 19:34:05;;;;;;;7.28;2.30;;;;;;;18.61;79.63;100966.59;5026874;28;20578;-74
2022/09/07 19:36:32;;;;;;;7.97;1.80;;;;;;;18.57;81.05;100968.25;5047619;28;20040;-68
2022/09/07 19:38:58;;;;;;;8.05;2.00;;;;;;;18.49;80.96;100972.44;5037813;28;20345;-74
2022/09/07 19:41:24;;;;;;;8.75;2.42;;;;;;;18.44;80.09;100966.88;5035701;28;20049;-77
2022/09/07 19:43:49;;;;;;;8.15;2.72;;;;;;;18.37;80.65;100969.13;5035731;28;20056;-77
2022/09/07 19:46:16;;;;;;;7.80;1.98;;;;;;;18.31;81.28;100973.84;5049395;28;20487;-68
2022/09/07 19:48:42;;;;;;;6.97;2.17;;;;;;;18.28;81.12;100968.00;5046508;28;20043;-76
2022/09/07 19:51:10;;;;;;;7.45;2.35;;;;;;;18.25;80.94;100963.00;5045581;28;20044;-74
2022/09/07 19:53:37;;;;;;;8.23;2.65;;;;;;;18.30;79.36;100963.84;5049556;28;20409;-74